Time;durP1;ratioP1;P1;durP2;ratioP2;P2;SDS_P1;SDS_P2;PMS_P1;PMS_P2;Temp;Humidity;BMP_temperature;BMP_pressure;BME280_temperature;BME280_humidity;BME280_pressure;Samples;Min_cycle;Max_cycle;Signal;HPM_P1;HPM_P2
2023/10/10 00:02:18;;;;;;;1999.90;999.90;;;15.00;99.90;;;;;;5114590;28;20459;-70
2023/10/10 00:04:47;;;;;;;1999.90;999.90;;;14.90;99.90;;;;;;5114704;28;20406;-70
2023/10/10 00:07:17;;;;;;;1999.90;999.90;;;14.80;99.90;;;;;;5114261;28;20816;-70
2023/10/10 00:09:44;;;;;;;1999.90;999.90;;;14.80;99.90;;;;;;5114449;28;20407;-70
2023/10/10 00:12:26;;;;;;;1999.90;999.90;;;14.70;99.90;;;;;;5114205;28;20448;-70
2023/10/10 00:14:53;;;;;;;1999.90;999.90;;;14.70;99.90;;;;;;5114509;28;20477;-70
2023/10/10 00:17:20;;;;;;;1999.90;999.90;;;14.80;99.90;;;;;;5102939;28;20416;-70
2023/10/10 00:19:52;;;;;;;1999.90;999.90;;;14.70;99.90;;;;;;5093849;28;20451;-70
2023/10/10 00:22:26;;;;;;;1999.90;999.90;;;14.70;99.90;;;;;;5093633;28;20837;-70
2023/10/10 00:24:52;;;;;;;1999.90;999.90;;;14.80;99.90;;;;;;5093832;28;20403;-70
2023/10/10 00:27:18;;;;;;;1999.90;999.90;;;14.80;99.90;;;;;;5093430;28;20400;-70
2023/10/10 00:29:43;;;;;;;1999.90;999.90;;;14.80;99.90;;;;;;5093643;28;20173;-70
2023/10/10 00:32:17;;;;;;;1999.90;999.90;;;14.80;99.90;;;;;;5093615;28;20540;-70
2023/10/10 00:34:47;;;;;;;1999.90;999.90;;;14.80;99.90;;;;;;5093507;28;20175;-70
2023/10/10 00:37:13;;;;;;;1999.90;999.90;;;14.80;99.90;;;;;;5093431;28;20407;-70
2023/10/10 00:39:39;;;;;;;1999.90;999.90;;;15.00;99.90;;;;;;5093476;28;20465;-70
2023/10/10 00:42:19;;;;;;;1999.90;999.90;;;15.10;99.90;;;;;;5093233;28;20452;-70
2023/10/10 00:44:46;;;;;;;1999.90;999.90;;;15.20;99.90;;;;;;5093378;28;20178;-70
2023/10/10 00:47:26;;;;;;;1999.90;999.90;;;15.30;99.90;;;;;;5093284;28;20768;-70
2023/10/10 00:49:52;;;;;;;1999.90;999.90;;;15.30;99.90;;;;;;5093449;28;20410;-70
2023/10/10 00:52:19;;;;;;;1999.90;999.90;;;15.40;99.90;;;;;;5093151;28;20482;-70
2023/10/10 00:54:45;;;;;;;1999.90;999.90;;;15.30;99.90;;;;;;5093048;28;20402;-70
2023/10/10 00:57:17;;;;;;;1999.90;999.90;;;15.30;99.90;;;;;;5092914;28;20789;-70
2023/10/10 00:59:48;;;;;;;1999.90;999.90;;;15.20;99.90;;;;;;5092940;28;20425;-70
2023/10/10 01:02:17;;;;;;;1999.90;999.90;;;15.30;99.90;;;;;;5093003;28;20909;-70
2023/10/10 01:04:49;;;;;;;1999.90;999.90;;;15.30;99.90;;;;;;5093114;28;20432;-70
2023/10/10 01:07:19;;;;;;;1999.90;999.90;;;15.20;99.90;;;;;;5092667;28;20454;-70
2023/10/10 01:12:22;;;;;;;1999.90;999.90;;;15.20;99.90;;;;;;5092643;28;20542;-70
2023/10/10 01:14:54;;;;;;;1999.90;999.90;;;15.20;99.90;;;;;;5092791;28;20412;-70
2023/10/10 01:17:20;;;;;;;1999.90;999.90;;;15.20;99.90;;;;;;5092710;28;20418;-70
2023/10/10 01:19:50;;;;;;;1999.90;999.90;;;15.10;99.90;;;;;;5092730;28;20440;-70
2023/10/10 01:22:57;;;;;;;1999.90;999.90;;;15.10;99.90;;;;;;5091133;28;20463;-70
2023/10/10 01:25:31;;;;;;;1999.90;999.90;;;15.10;99.90;;;;;;5093187;28;20870;-70
2023/10/10 01:27:53;;;;;;;1999.90;999.90;;;15.00;99.90;;;;;;5072015;28;20412;-70
2023/10/10 01:30:19;;;;;;;1999.90;999.90;;;14.90;99.90;;;;;;5072172;28;20433;-70
2023/10/10 01:32:50;;;;;;;1999.90;999.90;;;14.90;99.90;;;;;;5072216;28;20404;-70
2023/10/10 01:35:16;;;;;;;1999.90;999.90;;;14.90;99.90;;;;;;5072413;28;20792;-70
2023/10/10 01:37:48;;;;;;;1999.90;999.90;;;14.80;99.90;;;;;;5071994;28;20875;-70
2023/10/10 01:42:45;;;;;;;1999.90;999.90;;;14.80;99.90;;;;;;5072154;28;20445;-70
2023/10/10 01:45:11;;;;;;;1999.90;999.90;;;14.90;99.90;;;;;;5072058;28;20197;-70
2023/10/10 01:47:39;;;;;;;1999.90;999.90;;;14.90;99.90;;;;;;5071758;28;20418;-70
2023/10/10 01:50:10;;;;;;;1999.90;999.90;;;14.90;99.90;;;;;;5071939;28;20893;-70
2023/10/10 01:52:45;;;;;;;1999.90;999.90;;;14.80;99.90;;;;;;5072010;28;20414;-70
2023/10/10 01:55:11;;;;;;;1999.90;999.90;;;14.80;99.90;;;;;;5071605;28;20410;-70
2023/10/10 01:57:37;;;;;;;1999.90;999.90;;;14.80;99.90;;;;;;5071667;28;20419;-70
2023/10/10 02:00:19;;;;;;;1999.90;999.90;;;14.80;99.90;;;;;;5071978;28;20420;-70
2023/10/10 02:02:53;;;;;;;1999.90;999.90;;;14.80;99.90;;;;;;5072000;28;20216;-70
2023/10/10 02:08:01;;;;;;;1999.90;999.90;;;14.80;99.90;;;;;;5071728;28;20391;-70
2023/10/10 02:10:29;;;;;;;1999.90;999.90;;;14.80;99.90;;;;;;5071769;28;20449;-70
2023/10/10 02:12:59;;;;;;;1999.90;999.90;;;14.80;99.90;;;;;;5071923;28;20821;-70
2023/10/10 02:15:27;;;;;;;1999.90;999.90;;;14.80;99.90;;;;;;5071723;28;20432;-70
2023/10/10 02:17:54;;;;;;;1999.90;999.90;;;14.70;99.90;;;;;;5071825;28;20776;-70
2023/10/10 02:22:52;;;;;;;1999.90;999.90;;;14.60;99.90;;;;;;5071802;28;20906;-70
2023/10/10 02:27:56;;;;;;;1999.90;999.90;;;14.50;99.90;;;;;;5071968;28;20395;-70
2023/10/10 02:30:34;;;;;;;1999.90;999.90;;;14.50;99.90;;;;;;5071515;28;20428;-70
2023/10/10 02:33:05;;;;;;;1999.90;999.90;;;14.50;99.90;;;;;;5071744;28;20420;-70
2023/10/10 02:35:42;;;;;;;1999.90;999.90;;;14.40;99.90;;;;;;5073514;28;20441;-70
2023/10/10 02:38:11;;;;;;;1999.90;999.90;;;14.40;99.90;;;;;;5075376;28;20389;-70
2023/10/10 02:40:42;;;;;;;1999.90;999.90;;;14.30;99.90;;;;;;5075390;28;20955;-70
2023/10/10 02:43:33;;;;;;;1999.90;999.90;;;14.30;99.90;;;;;;5075681;28;20401;-70
2023/10/10 02:46:00;;;;;;;1999.90;999.90;;;14.30;99.90;;;;;;5075500;28;20408;-70
2023/10/10 02:48:27;;;;;;;1999.90;999.90;;;14.20;99.90;;;;;;5075178;28;20401;-70
2023/10/10 02:50:53;;;;;;;1999.90;999.90;;;14.20;99.90;;;;;;5075256;28;20428;-70
2023/10/10 02:53:19;;;;;;;1999.90;999.90;;;14.20;99.90;;;;;;5075321;28;20788;-70
2023/10/10 02:55:51;;;;;;;1999.90;999.90;;;14.10;99.90;;;;;;5075103;28;20413;-70
2023/10/10 02:58:21;;;;;;;1999.90;999.90;;;14.10;99.90;;;;;;5075004;28;20416;-70
2023/10/10 03:00:51;;;;;;;1999.90;999.90;;;14.10;99.90;;;;;;5075032;28;20458;-69
2023/10/10 03:03:19;;;;;;;1999.90;999.90;;;14.10;99.90;;;;;;5075004;28;20421;-70
2023/10/10 03:05:54;;;;;;;1999.90;999.90;;;14.10;99.90;;;;;;5074874;28;20790;-70
2023/10/10 03:11:01;;;;;;;1999.90;999.90;;;13.90;99.90;;;;;;5074996;28;20529;-70
2023/10/10 03:13:37;;;;;;;1999.90;999.90;;;14.00;99.90;;;;;;5074919;28;20400;-69
2023/10/10 03:21:43;;;;;;;1999.90;999.90;;;13.80;99.90;;;;;;5077365;28;20459;-70
2023/10/10 03:24:50;;;;;;;1999.90;999.90;;;13.80;99.90;;;;;;5103382;28;20815;-70
2023/10/10 03:27:49;;;;;;;1999.90;999.90;;;13.80;99.90;;;;;;5098552;28;20426;-69
2023/10/10 03:29:47;;;;;;;1999.90;999.90;;;13.80;99.90;;;;;;5112054;28;20397;-70
2023/10/10 03:32:25;;;;;;;1999.90;999.90;;;13.70;99.90;;;;;;5115147;28;20775;-70
2023/10/10 03:34:56;;;;;;;1999.90;999.90;;;13.70;99.90;;;;;;5115067;28;20914;-69
2023/10/10 03:40:20;;;;;;;1999.90;999.90;;;13.70;99.90;;;;;;5115151;28;20930;-69
2023/10/10 05:24:08;;;;;;;1999.90;999.90;;;13.30;99.90;;;;;;5097839;28;20447;-69
2023/10/10 05:26:45;;;;;;;1999.90;999.90;;;13.20;99.90;;;;;;5104537;28;20400;-70
2023/10/10 05:29:17;;;;;;;1999.90;999.90;;;13.20;99.90;;;;;;5112759;28;20399;-70
2023/10/10 05:31:47;;;;;;;1999.90;999.90;;;13.20;99.90;;;;;;5113107;28;20439;-69
2023/10/10 05:34:15;;;;;;;1999.90;999.90;;;13.20;99.90;;;;;;5113026;28;20422;-69
2023/10/10 05:36:44;;;;;;;1999.90;999.90;;;13.20;99.90;;;;;;5112761;28;20486;-70
2023/10/10 05:39:17;;;;;;;1999.90;999.90;;;13.20;99.90;;;;;;5112679;28;20402;-70
2023/10/10 05:41:44;;;;;;;1999.90;999.90;;;13.20;99.90;;;;;;5112547;28;20459;-69
2023/10/10 05:44:13;;;;;;;1999.90;999.90;;;13.10;99.90;;;;;;5112664;28;20489;-70
2023/10/10 05:46:39;;;;;;;1999.90;999.90;;;13.20;99.90;;;;;;5112646;28;20414;-69
2023/10/10 05:49:05;;;;;;;1999.90;999.90;;;13.20;99.90;;;;;;5112517;28;20751;-70
2023/10/10 05:51:31;;;;;;;1999.90;999.90;;;13.10;99.90;;;;;;5112469;28;21065;-70
2023/10/10 05:53:56;;;;;;;1999.90;999.90;;;13.10;99.90;;;;;;5112552;28;20402;-70
2023/10/10 05:56:23;;;;;;;1999.90;999.90;;;13.20;99.90;;;;;;5112486;28;20179;-70
2023/10/10 05:58:50;;;;;;;1999.90;999.90;;;13.20;99.90;;;;;;5112345;28;20165;-70
2023/10/10 06:01:17;;;;;;;1999.90;999.90;;;13.20;99.90;;;;;;5112566;28;20458;-69
2023/10/10 06:03:46;;;;;;;1999.90;999.90;;;13.20;99.90;;;;;;5112444;28;20913;-70
2023/10/10 06:06:13;;;;;;;1999.90;999.90;;;13.20;99.90;;;;;;5112364;28;20393;-70
2023/10/10 06:08:42;;;;;;;1999.90;999.90;;;13.10;99.90;;;;;;5112008;28;20397;-70
2023/10/10 06:11:15;;;;;;;1999.90;999.90;;;13.20;99.90;;;;;;5112162;28;20488;-70
2023/10/10 06:13:43;;;;;;;1999.90;999.90;;;13.10;99.90;;;;;;5095019;28;20759;-70
2023/10/10 06:16:12;;;;;;;1999.90;999.90;;;13.10;99.90;;;;;;5103456;28;20481;-70
2023/10/10 06:18:41;;;;;;;1999.90;999.90;;;13.10;99.90;;;;;;5109021;28;20915;-70
2023/10/10 06:21:07;;;;;;;1999.90;999.90;;;13.20;99.90;;;;;;5112061;28;20540;-70
2023/10/10 06:23:35;;;;;;;1999.90;999.90;;;13.20;99.90;;;;;;5112153;28;20493;-69
2023/10/10 06:26:04;;;;;;;1999.90;999.90;;;13.30;99.90;;;;;;5112382;28;20406;-70
2023/10/10 06:28:35;;;;;;;1999.90;999.90;;;13.20;99.90;;;;;;5111985;28;20441;-70
2023/10/10 06:31:02;;;;;;;1999.90;999.90;;;13.30;99.90;;;;;;5112175;28;20445;-70
2023/10/10 06:33:28;;;;;;;1999.90;999.90;;;13.40;99.90;;;;;;5112167;28;20447;-70
2023/10/10 06:41:40;;;;;;;1999.90;999.90;;;13.50;99.90;;;;;;5112096;28;20464;-70
2023/10/10 06:44:17;;;;;;;1999.90;999.90;;;13.50;99.90;;;;;;5112130;28;20402;-70
2023/10/10 06:46:49;;;;;;;1999.90;999.90;;;13.60;99.90;;;;;;5111990;28;20545;-70
2023/10/10 06:49:15;;;;;;;1999.90;999.90;;;13.70;99.90;;;;;;5111923;28;20780;-70
2023/10/10 06:51:40;;;;;;;1999.90;999.90;;;13.80;99.90;;;;;;5111931;28;20522;-69
2023/10/10 06:54:28;;;;;;;1999.90;999.90;;;13.90;99.90;;;;;;5112030;28;21022;-70
2023/10/10 06:59:29;;;;;;;1999.90;999.90;;;14.10;99.90;;;;;;5111331;28;20405;-70
2023/10/10 07:01:59;;;;;;;1999.90;999.90;;;14.20;99.90;;;;;;5089267;28;20906;-69
2023/10/10 07:04:29;;;;;;;1999.90;999.90;;;14.20;99.90;;;;;;5099867;28;20407;-70
2023/10/10 07:07:00;;;;;;;1999.90;999.90;;;14.30;99.90;;;;;;5110572;28;20426;-70
2023/10/10 07:09:29;;;;;;;1999.90;999.90;;;14.40;99.90;;;;;;5111558;28;20407;-70
2023/10/10 07:12:09;;;;;;;1999.90;999.90;;;14.50;99.90;;;;;;5111565;28;20439;-70
2023/10/10 07:14:46;;;;;;;1999.90;999.90;;;14.60;99.90;;;;;;5111838;28;20435;-69
2023/10/10 07:17:13;;;;;;;1999.90;999.90;;;14.70;99.90;;;;;;5111598;28;20407;-69
2023/10/10 07:22:42;;;;;;;1999.90;999.90;;;14.80;99.90;;;;;;5060063;28;20467;-69
2023/10/10 07:25:59;;;;;;;1999.90;999.90;;;14.80;99.90;;;;;;5096670;28;20422;-69
2023/10/10 07:28:00;;;;;;;1999.90;999.90;;;14.90;99.90;;;;;;5096598;28;20445;-70
2023/10/10 07:30:33;;;;;;;1999.90;999.90;;;15.00;99.90;;;;;;5106928;28;20438;-70
2023/10/10 07:33:02;;;;;;;1999.90;999.90;;;15.10;99.90;;;;;;5106711;28;20399;-70
2023/10/10 07:35:28;;;;;;;1999.90;999.90;;;15.20;99.90;;;;;;5115140;28;20408;-70
2023/10/10 07:37:58;;;;;;;1999.90;999.90;;;15.30;99.90;;;;;;5114861;28;20410;-70
2023/10/10 07:40:31;;;;;;;1999.90;999.90;;;15.40;99.90;;;;;;5113557;28;20438;-70
2023/10/10 07:42:59;;;;;;;1999.90;999.90;;;15.50;99.90;;;;;;5091174;28;20464;-70
2023/10/10 07:45:43;;;;;;;1999.90;999.90;;;15.60;99.90;;;;;;5106438;28;20420;-70
2023/10/10 07:50:35;;;;;;;1999.90;999.90;;;15.90;99.90;;;;;;5110247;28;20487;-70
2023/10/10 07:53:12;;;;;;;1999.90;999.90;;;15.90;99.90;;;;;;5105396;28;20393;-70
2023/10/10 07:58:17;;;;;;;1999.90;999.90;;;16.30;99.90;;;;;;5114541;28;20426;-70
2023/10/10 08:00:44;;;;;;;1999.90;999.90;;;16.40;99.90;;;;;;5114524;28;21042;-69
2023/10/10 08:03:19;;;;;;;1999.90;999.90;;;16.40;99.90;;;;;;5114583;28;20172;-69
2023/10/10 08:05:48;;;;;;;1999.90;999.90;;;16.50;99.90;;;;;;5114566;28;20410;-70
2023/10/10 08:08:17;;;;;;;1999.90;999.90;;;16.60;99.90;;;;;;5114290;28;20773;-69
2023/10/10 08:10:46;;;;;;;1999.90;999.90;;;16.70;99.90;;;;;;5114471;28;20871;-71
2023/10/10 08:13:14;;;;;;;1999.90;999.90;;;16.80;99.90;;;;;;5107178;28;20445;-70
2023/10/10 08:15:51;;;;;;;1999.90;999.90;;;16.90;99.90;;;;;;5105164;28;20842;-70
2023/10/10 08:23:30;;;;;;;1999.90;999.90;;;17.30;99.90;;;;;;5109422;28;20994;-70
2023/10/10 08:25:56;;;;;;;1999.90;999.90;;;17.40;99.90;;;;;;5114172;28;20465;-70
2023/10/10 08:28:23;;;;;;;1999.90;999.90;;;17.60;99.90;;;;;;5110067;28;20819;-69
2023/10/10 08:30:49;;;;;;;1999.90;999.90;;;17.70;99.90;;;;;;5105455;28;20813;-69
2023/10/10 08:33:15;;;;;;;1999.90;999.90;;;17.80;99.90;;;;;;5113855;28;20410;-70
2023/10/10 08:35:42;;;;;;;1999.90;999.90;;;18.00;99.90;;;;;;5113957;28;20407;-69
2023/10/10 08:38:08;;;;;;;1999.90;999.90;;;18.20;99.90;;;;;;5113695;28;20180;-69
2023/10/10 08:40:35;;;;;;;1999.90;999.90;;;18.30;99.90;;;;;;5106798;28;20436;-69
2023/10/10 08:43:07;;;;;;;1999.90;999.90;;;18.50;99.90;;;;;;5104266;28;20402;-69
2023/10/10 08:45:43;;;;;;;1999.90;999.90;;;18.70;99.90;;;;;;5108489;28;20422;-70
2023/10/10 08:48:13;;;;;;;1999.90;999.90;;;18.80;99.90;;;;;;5093464;28;20412;-70
2023/10/10 08:50:40;;;;;;;1999.90;999.90;;;18.90;99.90;;;;;;5093228;28;20431;-69
2023/10/10 08:53:13;;;;;;;1999.90;999.90;;;18.90;99.90;;;;;;5093287;28;20406;-68
2023/10/10 08:55:40;;;;;;;1999.90;999.90;;;19.10;99.90;;;;;;5073414;28;20416;-68
2023/10/10 08:58:12;;;;;;;1999.90;999.90;;;19.30;99.90;;;;;;5067663;28;20428;-69
2023/10/10 09:00:38;;;;;;;1999.90;999.90;;;19.40;99.90;;;;;;5067125;28;20485;-68
2023/10/10 09:03:07;;;;;;;1999.90;999.90;;;19.60;99.90;;;;;;5068275;28;20413;-70
2023/10/10 09:05:33;;;;;;;1999.90;999.90;;;19.70;99.90;;;;;;5067242;28;20179;-70
2023/10/10 09:08:07;;;;;;;1999.90;999.90;;;19.80;99.90;;;;;;5086122;28;20412;-70
2023/10/10 09:10:41;;;;;;;1999.90;999.90;;;19.90;99.90;;;;;;5088012;28;20460;-72
2023/10/10 09:13:09;;;;;;;1999.90;999.90;;;20.00;99.90;;;;;;5088327;28;20470;-73
2023/10/10 09:15:36;;;;;;;1999.90;999.90;;;20.10;99.90;;;;;;5088697;28;20492;-72
2023/10/10 09:18:22;;;;;;;1999.90;999.90;;;20.10;99.90;;;;;;5087551;28;20834;-71
2023/10/10 09:20:55;;;;;;;1999.90;999.90;;;20.30;99.90;;;;;;5088424;28;20455;-72
2023/10/10 09:23:26;;;;;;;1999.90;999.90;;;20.30;99.90;;;;;;5092260;28;20591;-71
2023/10/10 09:26:29;;;;;;;1999.90;999.90;;;20.30;99.90;;;;;;5086557;28;20432;-71
2023/10/10 09:29:03;;;;;;;1999.90;999.90;;;20.50;99.90;;;;;;5083836;28;20417;-71
2023/10/10 09:31:32;;;;;;;1999.90;999.90;;;20.60;99.90;;;;;;5085699;28;20443;-70
2023/10/10 09:34:02;;;;;;;1999.90;999.90;;;20.80;99.90;;;;;;5091636;28;20416;-71
2023/10/10 09:36:28;;;;;;;1999.90;999.90;;;20.90;99.90;;;;;;5092013;28;20548;-69
2023/10/10 09:39:14;;;;;;;1999.90;999.90;;;21.00;99.90;;;;;;5087117;28;20435;-69
2023/10/10 09:47:40;;;;;;;1999.90;999.90;;;21.40;99.90;;;;;;5091199;28;20432;-68
2023/10/10 09:52:57;;;;;;;1999.90;999.90;;;21.70;99.90;;;;;;5090915;28;20418;-71
2023/10/10 10:00:53;;;;;;;1999.90;999.90;;;22.10;99.90;;;;;;5091516;28;20449;-70
2023/10/10 10:06:54;;;;;;;1999.90;999.90;;;22.30;99.90;;;;;;5091453;28;20415;-68
2023/10/10 10:09:30;;;;;;;1999.90;999.90;;;22.20;99.90;;;;;;5083625;28;20992;-68
2023/10/10 10:12:33;;;;;;;1999.90;999.90;;;22.20;99.90;;;;;;5090764;28;20461;-68
2023/10/10 10:15:01;;;;;;;1999.90;999.90;;;22.20;99.90;;;;;;5083904;28;20420;-68
2023/10/10 10:17:54;;;;;;;1999.90;999.90;;;22.30;99.90;;;;;;5091516;28;20742;-68
2023/10/10 10:23:33;;;;;;;1999.90;999.90;;;22.50;99.90;;;;;;5090458;28;20419;-68
2023/10/10 10:26:10;;;;;;;1999.90;999.90;;;22.70;99.90;;;;;;5091313;28;20826;-68
2023/10/10 10:28:37;;;;;;;1999.90;999.90;;;22.80;99.90;;;;;;5083942;28;20417;-68
2023/10/10 10:31:16;;;;;;;1999.90;999.90;;;22.90;99.90;;;;;;5085973;28;20490;-68
2023/10/10 10:34:07;;;;;;;1999.90;999.90;;;23.00;99.90;;;;;;5089682;28;20424;-69
2023/10/10 10:36:44;;;;;;;1999.90;999.90;;;23.20;99.90;;;;;;5091446;28;20931;-70
2023/10/10 10:39:26;;;;;;;1999.90;999.90;;;23.40;99.30;;;;;;5090885;28;20379;-70
2023/10/10 10:41:59;;;;;;;1999.90;999.90;;;23.40;96.40;;;;;;5089912;28;20543;-70
2023/10/10 10:44:44;;;;;;;1999.90;999.90;;;23.50;96.50;;;;;;5090900;28;20520;-69
2023/10/10 10:47:11;;;;;;;1999.90;999.90;;;23.60;96.70;;;;;;5090914;28;20509;-70
2023/10/10 10:49:40;;;;;;;1999.90;999.90;;;23.70;96.80;;;;;;5084346;28;20420;-69
2023/10/10 10:52:19;;;;;;;1999.90;999.90;;;23.80;95.60;;;;;;5090557;28;20432;-69
2023/10/10 10:54:50;;;;;;;1999.90;999.90;;;24.00;92.40;;;;;;5091221;28;20482;-70
2023/10/10 10:57:28;;;;;;;1999.90;999.90;;;24.20;85.80;;;;;;5093913;28;20408;-70
2023/10/10 10:59:55;;;;;;;1999.90;999.90;;;24.20;76.60;;;;;;5094977;28;20378;-69
2023/10/10 11:02:31;;;;;;;1999.90;999.90;;;24.30;73.40;;;;;;5094111;28;20516;-69
2023/10/10 11:04:57;;;;;;;1999.90;999.90;;;24.30;67.80;;;;;;5094323;28;20514;-70
2023/10/10 11:07:29;;;;;;;1999.90;999.90;;;24.30;62.40;;;;;;5094769;28;20748;-70
2023/10/10 11:10:06;;;;;;;1999.90;999.90;;;24.20;58.60;;;;;;5094621;28;20405;-70
2023/10/10 11:12:32;;;;;;;1999.90;999.90;;;24.40;57.80;;;;;;5094305;28;20998;-70
2023/10/10 11:15:04;;;;;;;1999.90;999.90;;;24.50;56.90;;;;;;5094534;28;20386;-70
2023/10/10 11:17:37;;;;;;;1999.90;999.90;;;24.60;52.90;;;;;;5094295;28;20379;-69
2023/10/10 11:20:25;;;;;;;1999.90;999.90;;;24.60;52.20;;;;;;5094750;28;20416;-70
2023/10/10 11:22:54;;;;;;;1999.90;999.90;;;24.90;48.80;;;;;;5093644;28;20472;-70
2023/10/10 11:25:26;;;;;;;1999.90;999.90;;;25.40;46.30;;;;;;5098410;28;20431;-70
2023/10/10 11:27:54;;;;;;;1999.90;999.90;;;26.20;45.10;;;;;;5097302;28;20522;-70
2023/10/10 11:30:25;;;;;;;1999.90;999.90;;;27.00;39.20;;;;;;5094064;28;20942;-70
2023/10/10 11:33:05;;;;;;;1999.90;999.90;;;27.70;29.50;;;;;;5093987;28;20401;-70
2023/10/10 11:35:31;;;;;;;1999.90;999.90;;;28.30;23.70;;;;;;5087983;28;20788;-70
2023/10/10 11:38:06;;;;;;;1999.90;999.90;;;28.90;18.00;;;;;;5094005;28;20423;-70
2023/10/10 11:40:32;;;;;;;1999.90;999.90;;;29.50;14.60;;;;;;5093766;28;20434;-70
2023/10/10 11:43:05;;;;;;;1999.90;999.90;;;30.10;8.80;;;;;;5093427;28;20412;-70
2023/10/10 11:45:39;;;;;;;1999.90;999.90;;;30.60;5.20;;;;;;5094021;28;20426;-70
2023/10/10 11:48:12;;;;;;;1999.90;999.90;;;31.10;2.10;;;;;;5093694;28;20499;-70
2023/10/10 11:50:56;;;;;;;1999.90;999.90;;;31.30;1.00;;;;;;5093668;28;20432;-70
2023/10/10 11:53:28;;;;;;;1999.90;999.90;;;31.50;1.00;;;;;;5093937;28;21003;-70
2023/10/10 11:55:55;;;;;;;1999.90;999.90;;;31.60;1.00;;;;;;5093705;28;20445;-70
2023/10/10 11:58:35;;;;;;;1999.90;999.90;;;31.60;1.00;;;;;;5088958;28;20904;-70
2023/10/10 12:01:05;;;;;;;1999.90;999.90;;;31.60;1.00;;;;;;5093379;28;20828;-70
2023/10/10 12:03:41;;;;;;;1999.90;999.90;;;31.80;1.00;;;;;;5092743;28;20454;-70
2023/10/10 12:06:14;;;;;;;1999.90;999.90;;;31.90;1.00;;;;;;5093830;28;20922;-70
2023/10/10 12:08:48;;;;;;;1999.90;999.90;;;32.10;1.00;;;;;;5093453;28;20777;-70
2023/10/10 12:11:20;;;;;;;1999.90;999.90;;;32.40;1.00;;;;;;5092927;28;20458;-70
2023/10/10 12:13:46;;;;;;;1999.90;999.90;;;32.60;1.00;;;;;;5093456;28;20447;-70
2023/10/10 12:16:12;;;;;;;1999.90;999.90;;;32.80;1.00;;;;;;5093553;28;20415;-70
2023/10/10 12:18:49;;;;;;;1999.90;999.90;;;32.60;1.00;;;;;;5093074;28;20939;-70
2023/10/10 12:21:19;;;;;;;1999.90;999.90;;;32.60;1.00;;;;;;5093239;28;20394;-70
2023/10/10 12:23:47;;;;;;;1999.90;999.90;;;32.70;1.00;;;;;;5092738;28;20823;-70
2023/10/10 12:26:12;;;;;;;1999.90;999.90;;;32.70;1.00;;;;;;5093026;28;20499;-70
2023/10/10 12:28:38;;;;;;;1999.90;999.90;;;33.00;1.00;;;;;;5091794;28;20497;-70
2023/10/10 12:31:05;;;;;;;1999.90;999.90;;;33.10;1.00;;;;;;5092900;28;20224;-70
2023/10/10 12:33:31;;;;;;;1999.90;999.90;;;33.30;1.00;;;;;;5092997;28;20896;-70
2023/10/10 12:35:57;;;;;;;1999.90;999.90;;;33.40;1.00;;;;;;5093152;28;20416;-68
2023/10/10 12:38:23;;;;;;;1999.90;999.90;;;33.30;1.00;;;;;;5092939;28;20412;-70
2023/10/10 12:40:50;;;;;;;1999.90;999.90;;;33.40;1.00;;;;;;5092558;28;20471;-70
2023/10/10 12:43:20;;;;;;;1999.90;999.90;;;33.30;1.00;;;;;;5092137;28;20411;-70
2023/10/10 12:45:46;;;;;;;1999.90;999.90;;;33.70;1.00;;;;;;5092891;28;20820;-70
2023/10/10 12:48:20;;;;;;;1999.90;999.90;;;34.10;1.00;;;;;;5092605;28;20499;-70
2023/10/10 12:50:47;;;;;;;1999.90;999.90;;;34.50;1.00;;;;;;5092651;28;20962;-69
2023/10/10 12:53:16;;;;;;;1999.90;999.90;;;34.30;1.00;;;;;;5092354;28;20553;-69
2023/10/10 12:58:26;;;;;;;1999.90;999.90;;;34.10;1.00;;;;;;5092530;28;20396;-69
2023/10/10 13:00:53;;;;;;;1999.90;999.90;;;34.50;1.00;;;;;;5092436;28;20464;-68
2023/10/10 13:03:27;;;;;;;1999.90;999.90;;;34.70;1.00;;;;;;5091761;28;20493;-68
2023/10/10 13:06:00;;;;;;;1999.90;999.90;;;35.10;1.00;;;;;;5087868;28;20466;-68
2023/10/10 13:08:38;;;;;;;1999.90;999.90;;;35.00;1.00;;;;;;5077039;28;20413;-70
2023/10/10 13:11:17;;;;;;;1999.90;999.90;;;35.30;1.00;;;;;;5077516;28;20467;-72
2023/10/10 13:13:56;;;;;;;1999.90;999.90;;;35.50;1.00;;;;;;5082517;28;20432;-72
2023/10/10 13:19:09;;;;;;;1999.90;999.90;;;35.60;1.00;;;;;;5091579;28;20465;-69
2023/10/10 13:21:36;;;;;;;1999.90;999.90;;;35.60;1.00;;;;;;5092014;28;20464;-68
2023/10/10 13:24:03;;;;;;;1999.90;999.90;;;35.70;1.00;;;;;;5091329;28;20538;-68
2023/10/10 13:26:28;;;;;;;1999.90;999.90;;;35.70;1.00;;;;;;5092338;28;20415;-68
2023/10/10 13:28:54;;;;;;;1999.90;999.90;;;35.50;1.00;;;;;;5091885;28;20412;-71
2023/10/10 13:31:24;;;;;;;1999.90;999.90;;;35.10;1.00;;;;;;5091565;28;20589;-71
2023/10/10 13:33:50;;;;;;;1999.90;999.90;;;35.30;1.00;;;;;;5091950;28;20189;-69
2023/10/10 13:36:16;;;;;;;1999.90;999.90;;;35.60;1.00;;;;;;5092070;28;20451;-71
2023/10/10 13:38:47;;;;;;;1999.90;999.90;;;35.90;1.00;;;;;;5091631;28;20412;-69
2023/10/10 13:41:16;;;;;;;1999.90;999.90;;;35.90;1.00;;;;;;5091673;28;20209;-68
2023/10/10 13:43:47;;;;;;;1999.90;999.90;;;35.70;1.00;;;;;;5091210;28;20404;-68
2023/10/10 13:46:15;;;;;;;1999.90;999.90;;;35.70;1.00;;;;;;5091810;28;20431;-70
2023/10/10 13:48:41;;;;;;;1999.90;999.90;;;35.60;1.00;;;;;;5091731;28;20404;-70
2023/10/10 13:51:07;;;;;;;1999.90;999.90;;;35.70;1.00;;;;;;5091374;28;20459;-70
2023/10/10 13:53:35;;;;;;;1999.90;999.90;;;35.60;1.00;;;;;;5091302;28;20174;-70
2023/10/10 13:56:03;;;;;;;1999.90;999.90;;;35.70;1.00;;;;;;5091768;28;20477;-71
2023/10/10 13:58:29;;;;;;;1999.90;999.90;;;35.90;1.00;;;;;;5091641;28;20413;-70
2023/10/10 14:03:45;;;;;;;1999.90;999.90;;;36.00;1.00;;;;;;5091030;28;20634;-71
2023/10/10 14:06:19;;;;;;;1999.90;999.90;;;36.00;1.00;;;;;;5091423;28;20491;-70
2023/10/10 14:08:47;;;;;;;1999.90;999.90;;;36.00;1.00;;;;;;5091123;28;20413;-70
2023/10/10 14:11:23;;;;;;;1999.90;999.90;;;36.20;1.00;;;;;;5091091;28;20456;-71
2023/10/10 14:13:53;;;;;;;1999.90;999.90;;;36.30;1.00;;;;;;5090380;28;20440;-69
2023/10/10 14:16:21;;;;;;;1999.90;999.90;;;36.50;1.00;;;;;;5091108;28;20412;-69
2023/10/10 14:18:49;;;;;;;1999.90;999.90;;;36.50;1.00;;;;;;5091510;28;21040;-70
2023/10/10 14:21:17;;;;;;;1999.90;999.90;;;36.50;1.00;;;;;;5091372;28;21014;-69
2023/10/10 14:23:45;;;;;;;1999.90;999.90;;;36.30;1.00;;;;;;5090684;28;20751;-70
2023/10/10 14:26:18;;;;;;;1999.90;999.90;;;35.50;1.00;;;;;;5091196;28;20799;-70
2023/10/10 14:28:50;;;;;;;1999.90;999.90;;;35.50;1.00;;;;;;5091040;28;20411;-70
2023/10/10 14:31:31;;;;;;;1999.90;999.90;;;35.40;1.00;;;;;;5094056;28;20447;-70
2023/10/10 14:34:00;;;;;;;1999.90;999.90;;;35.00;1.00;;;;;;5095239;28;20412;-70
2023/10/10 14:36:30;;;;;;;1999.90;999.90;;;34.80;1.00;;;;;;5095200;28;20412;-70
2023/10/10 14:38:57;;;;;;;1999.90;999.90;;;35.00;1.00;;;;;;5095026;28;20935;-71
2023/10/10 14:41:29;;;;;;;1999.90;999.90;;;35.00;1.00;;;;;;5095168;28;20456;-71
2023/10/10 14:44:00;;;;;;;1999.90;999.90;;;35.10;1.00;;;;;;5095274;28;20409;-70
2023/10/10 14:46:33;;;;;;;1999.90;999.90;;;35.30;1.00;;;;;;5081605;28;20874;-70
2023/10/10 14:49:06;;;;;;;1999.90;999.90;;;34.80;1.00;;;;;;5083910;28;20903;-70
2023/10/10 14:51:34;;;;;;;1999.90;999.90;;;34.30;1.00;;;;;;5079515;28;20430;-70
2023/10/10 14:54:06;;;;;;;1999.90;999.90;;;34.20;1.00;;;;;;5094824;28;20996;-71
2023/10/10 14:56:36;;;;;;;1999.90;999.90;;;34.00;1.00;;;;;;5095239;28;20441;-69
2023/10/10 14:59:06;;;;;;;1999.90;999.90;;;34.20;1.00;;;;;;5094972;28;20447;-70
2023/10/10 15:01:36;;;;;;;1999.90;999.90;;;34.20;1.00;;;;;;5094682;28;20451;-69
2023/10/10 15:04:06;;;;;;;1999.90;999.90;;;33.80;1.00;;;;;;5094798;28;20420;-69
2023/10/10 15:06:33;;;;;;;1999.90;999.90;;;33.90;1.00;;;;;;5092692;28;20438;-70
2023/10/10 15:09:00;;;;;;;1999.90;999.90;;;34.10;1.00;;;;;;5094733;28;20412;-71
2023/10/10 15:11:29;;;;;;;1999.90;999.90;;;33.70;1.00;;;;;;5094782;28;20454;-72
2023/10/10 15:13:58;;;;;;;1999.90;999.90;;;33.70;1.00;;;;;;5095259;28;20451;-71
2023/10/10 15:16:27;;;;;;;1999.90;999.90;;;33.90;1.00;;;;;;5084244;28;20416;-71